Time;durP1;ratioP1;P1;durP2;ratioP2;P2;SDS_P1;SDS_P2;PMS_P1;PMS_P2;Temp;Humidity;BMP_temperature;BMP_pressure;BME280_temperature;BME280_humidity;BME280_pressure;Samples;Min_cycle;Max_cycle;Signal;HPM_P1;HPM_P2
2022/10/03 00:00:17;;;;;;;11.73;3.63;;;11.10;99.90;;;;;;5132830;27;20632;-53
2022/10/03 00:03:20;;;;;;;12.63;4.07;;;11.10;99.90;;;;;;5132754;27;20633;-54
2022/10/03 00:06:08;;;;;;;17.85;4.45;;;11.00;99.90;;;;;;5132715;27;20247;-56
2022/10/03 00:09:11;;;;;;;8.63;4.10;;;11.00;99.90;;;;;;5139038;27;20168;-54
2022/10/03 00:12:14;;;;;;;7.05;3.25;;;11.00;99.90;;;;;;5139589;27;20624;-54
2022/10/03 00:14:57;;;;;;;11.05;3.80;;;11.00;99.90;;;;;;5116083;27;20180;-55
2022/10/03 00:17:29;;;;;;;10.48;3.90;;;10.90;99.90;;;;;;5139929;27;20192;-54
2022/10/03 00:20:04;;;;;;;12.55;3.90;;;10.90;99.90;;;;;;5139954;27;20163;-53
2022/10/03 00:22:43;;;;;;;14.07;3.83;;;10.80;99.90;;;;;;5139602;27;20202;-55
2022/10/03 00:25:28;;;;;;;17.67;4.95;;;10.90;99.90;;;;;;5139488;27;20179;-55
2022/10/03 00:28:14;;;;;;;13.43;4.57;;;10.90;99.90;;;;;;5139786;27;20195;-55
2022/10/03 00:30:55;;;;;;;14.55;5.47;;;10.90;99.90;;;;;;5139425;27;20172;-55
2022/10/03 00:33:32;;;;;;;11.13;4.03;;;10.80;99.90;;;;;;5139513;27;20246;-54
2022/10/03 00:36:20;;;;;;;14.48;4.32;;;10.80;99.90;;;;;;5139557;27;20519;-55
2022/10/03 00:39:30;;;;;;;16.33;4.50;;;10.80;99.90;;;;;;5139592;27;20178;-56
2022/10/03 00:42:19;;;;;;;13.95;4.35;;;10.70;99.90;;;;;;5096433;28;20215;-53
2022/10/03 00:45:34;;;;;;;14.18;5.25;;;10.70;99.90;;;;;;5137616;27;20180;-55
2022/10/03 00:48:14;;;;;;;15.30;4.53;;;10.70;99.90;;;;;;5139172;27;20164;-54
2022/10/03 00:50:48;;;;;;;10.38;4.05;;;10.70;99.90;;;;;;5139237;27;20159;-55
2022/10/03 00:53:43;;;;;;;10.80;4.50;;;10.70;99.90;;;;;;5139253;27;20195;-56
2022/10/03 00:56:41;;;;;;;14.70;4.10;;;10.70;99.90;;;;;;5139032;27;20215;-54
2022/10/03 00:59:36;;;;;;;11.30;3.90;;;10.70;99.90;;;;;;5139232;27;20168;-55
2022/10/03 01:02:45;;;;;;;11.60;3.85;;;10.60;99.90;;;;;;5137875;27;20203;-56
2022/10/03 01:05:34;;;;;;;11.77;5.00;;;10.60;99.90;;;;;;5138999;27;20711;-55
2022/10/03 01:08:19;;;;;;;13.38;4.15;;;10.60;99.90;;;;;;5139029;27;20156;-53
2022/10/03 01:11:02;;;;;;;8.80;3.63;;;10.60;99.90;;;;;;5139042;27;20164;-54
2022/10/03 01:13:55;;;;;;;15.57;3.85;;;10.60;99.90;;;;;;5137733;27;20620;-53
2022/10/03 01:16:41;;;;;;;7.95;3.70;;;10.60;99.90;;;;;;5138956;27;20164;-54
2022/10/03 01:19:26;;;;;;;15.32;5.22;;;10.50;99.90;;;;;;5135675;27;20168;-55
2022/10/03 01:22:16;;;;;;;12.30;4.32;;;10.60;99.90;;;;;;5135974;27;20202;-55
2022/10/03 01:25:00;;;;;;;13.25;4.68;;;10.50;99.90;;;;;;5134354;27;20156;-55
2022/10/03 01:30:39;;;;;;;15.88;4.15;;;10.60;99.90;;;;;;5135449;27;20190;-53
2022/10/03 01:33:12;;;;;;;15.82;5.07;;;10.50;99.90;;;;;;5135454;27;20529;-53
2022/10/03 01:35:55;;;;;;;13.05;4.28;;;10.50;99.90;;;;;;5135388;27;20601;-53
2022/10/03 01:38:39;;;;;;;15.82;4.30;;;10.50;99.90;;;;;;5135327;27;20534;-54
2022/10/03 01:41:09;;;;;;;17.60;4.10;;;10.60;99.90;;;;;;5135170;27;20677;-54
2022/10/03 01:43:46;;;;;;;13.40;4.32;;;10.60;99.90;;;;;;5135452;27;20160;-55
2022/10/03 01:46:20;;;;;;;17.88;4.68;;;10.50;99.90;;;;;;5135116;27;20224;-54
2022/10/03 01:49:06;;;;;;;10.25;3.63;;;10.50;99.90;;;;;;5135132;27;20258;-54
2022/10/03 01:52:10;;;;;;;12.50;3.92;;;10.60;99.90;;;;;;5135215;27;20160;-54
2022/10/03 01:54:53;;;;;;;10.70;3.83;;;10.50;99.90;;;;;;5134895;27;20219;-54
2022/10/03 01:57:32;;;;;;;17.88;4.35;;;10.50;99.90;;;;;;5134999;27;20217;-54
2022/10/03 02:00:14;;;;;;;11.80;3.60;;;10.50;99.90;;;;;;5135210;27;20214;-54
2022/10/03 02:02:43;;;;;;;14.02;4.38;;;10.50;99.90;;;;;;5134984;27;20262;-56
2022/10/03 02:05:13;;;;;;;9.68;3.72;;;10.50;99.90;;;;;;5134978;27;20160;-54
2022/10/03 02:07:48;;;;;;;11.23;3.40;;;10.50;99.90;;;;;;5134734;27;20250;-53
2022/10/03 02:10:48;;;;;;;14.82;4.00;;;10.40;99.90;;;;;;5134730;27;20167;-53
2022/10/03 02:13:22;;;;;;;17.15;4.10;;;10.50;99.90;;;;;;5134719;27;20170;-53
2022/10/03 02:16:09;;;;;;;15.07;3.90;;;10.50;99.90;;;;;;5133433;27;20545;-54
2022/10/03 02:19:19;;;;;;;9.43;3.35;;;10.50;99.90;;;;;;5134557;27;20206;-54
2022/10/03 02:21:49;;;;;;;19.27;4.13;;;10.40;99.90;;;;;;5134340;27;20203;-54
2022/10/03 02:24:14;;;;;;;13.90;3.67;;;10.40;99.90;;;;;;5134770;27;20168;-54
2022/10/03 02:27:27;;;;;;;20.27;5.80;;;10.40;99.90;;;;;;5134410;27;20190;-54
2022/10/03 02:30:07;;;;;;;15.07;3.55;;;10.40;99.90;;;;;;5112761;27;20284;-54
2022/10/03 02:33:10;;;;;;;7.00;3.17;;;10.40;99.90;;;;;;5134309;27;20160;-54
2022/10/03 02:35:50;;;;;;;10.88;3.40;;;10.30;99.90;;;;;;5132991;27;20179;-54
2022/10/03 02:38:16;;;;;;;11.98;3.88;;;10.30;99.90;;;;;;5134406;27;20163;-54
2022/10/03 02:40:46;;;;;;;19.60;5.00;;;10.30;99.90;;;;;;5134107;27;20196;-54
2022/10/03 02:43:47;;;;;;;11.93;4.22;;;10.30;99.90;;;;;;5134171;27;20164;-55
2022/10/03 02:46:36;;;;;;;12.32;3.80;;;10.20;99.90;;;;;;5091087;28;20197;-56
2022/10/03 02:49:23;;;;;;;9.88;4.53;;;10.20;99.90;;;;;;5132021;27;20255;-55
2022/10/03 02:52:34;;;;;;;17.90;3.90;;;10.20;99.90;;;;;;5133881;27;20178;-56
2022/10/03 02:55:21;;;;;;;12.38;3.78;;;10.20;99.90;;;;;;5117228;27;20211;-55
2022/10/03 02:58:05;;;;;;;14.05;5.38;;;10.20;99.90;;;;;;5133738;27;20167;-55
2022/10/03 03:00:39;;;;;;;11.85;3.75;;;10.20;99.90;;;;;;5133691;27;20160;-54
2022/10/03 03:03:21;;;;;;;13.43;3.97;;;10.20;99.90;;;;;;5133693;27;20615;-56
2022/10/03 03:06:28;;;;;;;13.63;3.97;;;10.20;99.90;;;;;;5133824;27;20156;-55
2022/10/03 03:08:53;;;;;;;18.42;4.28;;;10.20;99.90;;;;;;5134176;27;20212;-56
2022/10/03 03:11:40;;;;;;;15.68;4.55;;;10.20;99.90;;;;;;5133540;27;20577;-57
2022/10/03 03:14:44;;;;;;;12.15;4.10;;;10.20;99.90;;;;;;5133724;27;20179;-56
2022/10/03 03:17:33;;;;;;;11.02;3.97;;;10.20;99.90;;;;;;5133469;27;20156;-55
2022/10/03 03:20:17;;;;;;;18.65;4.65;;;10.10;99.90;;;;;;5133570;27;20210;-55
2022/10/03 03:23:06;;;;;;;18.65;5.53;;;10.20;99.90;;;;;;5132929;27;20543;-55
2022/10/03 03:25:40;;;;;;;13.45;4.43;;;10.20;99.90;;;;;;5133377;27;20163;-56
2022/10/03 03:28:18;;;;;;;14.65;5.05;;;10.10;99.90;;;;;;5133574;27;20493;-55
2022/10/03 03:30:58;;;;;;;13.25;4.60;;;10.10;99.90;;;;;;5132127;27;20164;-55
2022/10/03 03:33:39;;;;;;;16.25;4.43;;;10.10;99.90;;;;;;5133763;27;20160;-55
2022/10/03 03:36:15;;;;;;;9.43;4.50;;;10.20;99.90;;;;;;5133169;27;20164;-55
2022/10/03 03:39:12;;;;;;;12.85;4.72;;;10.20;99.90;;;;;;5133384;27;20168;-56
2022/10/03 03:42:21;;;;;;;11.43;4.18;;;10.20;99.90;;;;;;5132310;27;20206;-55
2022/10/03 03:44:49;;;;;;;11.00;5.05;;;10.20;99.90;;;;;;5089960;28;20226;-55
2022/10/03 03:47:53;;;;;;;15.77;4.88;;;10.20;99.90;;;;;;5090066;28;20697;-55
2022/10/03 03:50:37;;;;;;;13.57;4.82;;;10.20;99.90;;;;;;5123474;27;20179;-56
2022/10/03 03:53:33;;;;;;;14.63;5.35;;;10.20;99.90;;;;;;5133189;27;20297;-55
2022/10/03 03:56:19;;;;;;;17.98;5.10;;;10.30;99.90;;;;;;5132737;27;20297;-55
2022/10/03 03:59:03;;;;;;;17.60;5.05;;;10.30;99.90;;;;;;5132845;27;20159;-55
2022/10/03 04:01:31;;;;;;;13.77;5.30;;;10.20;99.90;;;;;;5132717;27;20590;-55
2022/10/03 04:04:11;;;;;;;13.80;5.10;;;10.30;99.90;;;;;;5132687;27;20163;-56
2022/10/03 04:06:55;;;;;;;11.40;5.03;;;10.30;99.90;;;;;;5132912;27;20176;-55
2022/10/03 04:09:45;;;;;;;14.90;5.55;;;10.30;99.90;;;;;;5133231;27;20164;-56
2022/10/03 04:12:38;;;;;;;12.93;5.38;;;10.30;99.90;;;;;;5132738;27;20160;-53
2022/10/03 04:15:24;;;;;;;11.93;5.20;;;10.20;99.90;;;;;;5132821;27;20159;-53
2022/10/03 04:21:19;;;;;;;11.85;6.30;;;10.20;99.90;;;;;;5123192;27;20300;-53
2022/10/03 04:24:12;;;;;;;15.68;6.10;;;10.20;99.90;;;;;;5131319;28;20682;-54
2022/10/03 04:26:58;;;;;;;19.48;6.65;;;10.10;99.90;;;;;;5132836;27;20232;-53
2022/10/03 04:29:57;;;;;;;15.15;6.50;;;10.20;99.90;;;;;;5133203;27;20175;-55
2022/10/03 04:32:47;;;;;;;17.08;7.10;;;10.10;99.90;;;;;;5132838;27;20184;-54
2022/10/03 04:35:23;;;;;;;16.67;6.88;;;10.10;99.90;;;;;;5132755;27;20525;-56
2022/10/03 04:38:11;;;;;;;20.80;6.88;;;10.10;99.90;;;;;;5132466;27;20251;-56
2022/10/03 04:41:26;;;;;;;19.98;6.97;;;10.20;99.90;;;;;;5132349;27;20717;-55
2022/10/03 04:44:04;;;;;;;17.83;6.57;;;10.20;99.90;;;;;;5113031;27;20188;-56
2022/10/03 04:46:51;;;;;;;10.80;6.93;;;10.10;99.90;;;;;;5132624;27;20509;-53
2022/10/03 04:49:26;;;;;;;17.45;7.10;;;10.20;99.90;;;;;;5132267;27;20179;-54
2022/10/03 04:52:15;;;;;;;14.40;7.85;;;10.10;99.90;;;;;;5132692;27;20175;-54
2022/10/03 04:54:47;;;;;;;15.90;6.85;;;10.20;99.90;;;;;;5129956;27;20261;-54
2022/10/03 04:57:48;;;;;;;17.95;6.97;;;10.20;99.90;;;;;;5136168;27;20541;-54
2022/10/03 05:00:24;;;;;;;19.42;7.88;;;10.10;99.90;;;;;;5136211;27;20162;-55
2022/10/03 05:02:57;;;;;;;23.70;9.13;;;10.20;99.90;;;;;;5136044;27;20191;-56
2022/10/03 05:05:30;;;;;;;17.15;7.68;;;10.20;99.90;;;;;;5136344;27;20168;-55
2022/10/03 05:08:09;;;;;;;18.38;7.38;;;10.10;99.90;;;;;;5135960;27;20164;-56
2022/10/03 05:10:46;;;;;;;21.58;7.68;;;10.10;99.90;;;;;;5135938;27;20160;-55
2022/10/03 05:13:21;;;;;;;12.40;6.72;;;10.10;99.90;;;;;;5134608;27;20163;-55
2022/10/03 05:16:13;;;;;;;25.45;7.55;;;10.10;99.90;;;;;;5135884;27;20168;-54
2022/10/03 05:18:41;;;;;;;18.00;7.20;;;10.10;99.90;;;;;;5135738;27;20156;-55
2022/10/03 05:21:38;;;;;;;20.42;7.28;;;10.10;99.90;;;;;;5135668;27;20219;-55
2022/10/03 05:24:25;;;;;;;18.75;7.20;;;10.10;99.90;;;;;;5135761;27;20247;-55
2022/10/03 05:27:04;;;;;;;19.23;7.65;;;10.10;99.90;;;;;;5134694;27;20171;-55
2022/10/03 05:29:47;;;;;;;20.75;7.78;;;10.10;99.90;;;;;;5135769;27;20196;-56
2022/10/03 05:32:26;;;;;;;20.20;7.55;;;10.10;99.90;;;;;;5135544;27;20595;-55
2022/10/03 05:35:16;;;;;;;21.35;7.80;;;10.10;99.90;;;;;;5135428;27;20536;-55
2022/10/03 05:38:08;;;;;;;28.52;8.27;;;10.20;99.90;;;;;;5135419;27;20614;-54
2022/10/03 05:40:37;;;;;;;17.40;7.68;;;10.10;99.90;;;;;;5135308;27;20171;-53
2022/10/03 05:43:27;;;;;;;16.35;7.60;;;10.10;99.90;;;;;;5135295;27;20262;-53
2022/10/03 05:46:02;;;;;;;15.02;7.25;;;10.20;99.90;;;;;;5135653;27;20183;-54
2022/10/03 05:49:03;;;;;;;16.67;8.13;;;10.10;99.90;;;;;;5135121;27;20535;-55
2022/10/03 05:51:45;;;;;;;15.63;7.18;;;10.20;99.90;;;;;;5133907;27;20168;-53
2022/10/03 05:54:14;;;;;;;13.43;7.45;;;10.20;99.90;;;;;;5134858;27;20672;-54
2022/10/03 05:57:06;;;;;;;12.15;6.43;;;10.10;99.90;;;;;;5135141;27;20171;-54
2022/10/03 05:59:47;;;;;;;18.65;7.53;;;10.00;99.90;;;;;;5135317;27;20175;-54
2022/10/03 06:02:50;;;;;;;21.40;8.05;;;10.10;99.90;;;;;;5134838;27;20199;-54
2022/10/03 06:05:39;;;;;;;14.35;7.40;;;10.20;99.90;;;;;;5134322;27;20164;-54
2022/10/03 06:08:50;;;;;;;18.75;8.32;;;10.20;99.90;;;;;;5133564;27;20171;-54
2022/10/03 06:11:33;;;;;;;18.33;7.53;;;10.20;99.90;;;;;;5133489;27;20168;-53
2022/10/03 06:14:31;;;;;;;14.27;7.38;;;10.30;99.90;;;;;;5134747;27;20251;-54
2022/10/03 06:17:20;;;;;;;19.13;7.50;;;10.30;99.90;;;;;;5134938;27;20172;-55
2022/10/03 06:19:57;;;;;;;16.23;7.55;;;10.30;99.90;;;;;;5133348;27;20263;-54
2022/10/03 06:22:49;;;;;;;16.95;7.40;;;10.40;99.90;;;;;;5134832;27;20340;-54
2022/10/03 06:25:48;;;;;;;13.05;7.30;;;10.40;99.90;;;;;;5128711;27;20172;-54
2022/10/03 06:28:54;;;;;;;13.82;6.63;;;10.40;99.90;;;;;;5134450;27;20168;-55
2022/10/03 06:31:57;;;;;;;19.50;7.15;;;10.40;99.90;;;;;;5134765;27;20164;-55
2022/10/03 06:34:32;;;;;;;18.55;6.70;;;10.40;99.90;;;;;;5134700;27;20242;-54
2022/10/03 06:37:09;;;;;;;15.77;6.20;;;10.40;99.90;;;;;;5134228;27;20616;-55
2022/10/03 06:40:09;;;;;;;17.98;6.95;;;10.60;99.90;;;;;;5134503;27;20258;-55
2022/10/03 06:42:52;;;;;;;20.20;7.13;;;10.70;99.90;;;;;;5132812;27;20215;-55
2022/10/03 06:45:46;;;;;;;18.15;7.85;;;10.70;99.90;;;;;;5134125;27;20636;-55
2022/10/03 06:48:36;;;;;;;15.35;6.10;;;10.70;99.90;;;;;;5134040;27;20168;-55
2022/10/03 06:51:39;;;;;;;15.20;6.65;;;10.80;99.90;;;;;;5134058;27;20164;-55
2022/10/03 06:54:32;;;;;;;16.63;6.95;;;10.90;99.90;;;;;;5133696;27;20160;-55
2022/10/03 06:57:07;;;;;;;16.35;7.75;;;11.10;99.90;;;;;;5133839;27;20168;-56
2022/10/03 06:59:44;;;;;;;15.05;7.25;;;11.20;99.90;;;;;;5133819;27;20167;-55
2022/10/03 07:02:20;;;;;;;17.45;6.70;;;11.30;99.90;;;;;;5133731;27;20233;-55
2022/10/03 07:05:22;;;;;;;17.38;6.72;;;11.40;99.90;;;;;;5133652;27;20159;-55
2022/10/03 07:08:17;;;;;;;18.00;6.50;;;11.40;99.90;;;;;;5133252;27;20175;-55
2022/10/03 07:10:58;;;;;;;16.63;7.22;;;11.50;99.90;;;;;;5133575;27;20251;-55
2022/10/03 07:13:57;;;;;;;20.08;6.85;;;11.60;99.90;;;;;;5133204;27;20167;-53
2022/10/03 07:16:44;;;;;;;14.30;6.40;;;11.80;99.90;;;;;;5132968;27;20168;-55
2022/10/03 07:19:20;;;;;;;15.77;6.13;;;11.90;99.90;;;;;;5133331;27;20163;-56
2022/10/03 07:22:23;;;;;;;18.27;6.63;;;12.20;99.90;;;;;;5132813;27;20552;-56
2022/10/03 07:25:24;;;;;;;10.00;5.45;;;12.10;99.90;;;;;;5133569;27;20163;-55
2022/10/03 07:27:49;;;;;;;12.27;6.53;;;12.10;99.90;;;;;;5133608;27;20172;-55
2022/10/03 07:30:30;;;;;;;14.80;5.95;;;12.20;99.90;;;;;;5133090;27;20229;-56
2022/10/03 07:33:24;;;;;;;14.77;5.68;;;12.20;99.90;;;;;;5133134;27;20187;-57
2022/10/03 07:39:00;;;;;;;16.65;6.03;;;12.10;99.90;;;;;;5133118;27;20182;-56
2022/10/03 07:41:56;;;;;;;10.32;6.05;;;12.10;99.90;;;;;;5132989;27;20199;-55
2022/10/03 07:44:59;;;;;;;21.92;6.90;;;12.10;99.90;;;;;;5133391;27;20255;-56
2022/10/03 07:47:44;;;;;;;14.23;6.55;;;12.30;99.90;;;;;;5132986;27;20216;-55
2022/10/03 07:50:35;;;;;;;14.30;6.18;;;12.60;99.90;;;;;;5133212;27;20167;-57
2022/10/03 07:53:24;;;;;;;19.70;6.97;;;12.50;99.90;;;;;;5133001;27;20522;-55
2022/10/03 07:56:20;;;;;;;22.63;8.02;;;12.40;99.90;;;;;;5133155;27;20231;-54
2022/10/03 07:58:58;;;;;;;12.10;5.65;;;12.80;99.90;;;;;;5132863;27;20639;-54
2022/10/03 08:02:01;;;;;;;14.77;6.72;;;13.10;99.90;;;;;;5132806;27;20199;-54
2022/10/03 08:04:49;;;;;;;16.40;6.20;;;13.20;99.90;;;;;;5090085;28;20549;-55
2022/10/03 08:07:33;;;;;;;17.13;6.35;;;13.30;99.90;;;;;;5089982;27;20180;-54
2022/10/03 08:10:47;;;;;;;14.18;6.68;;;13.60;99.90;;;;;;5132696;27;20170;-53
2022/10/03 08:13:52;;;;;;;12.75;6.57;;;13.30;99.90;;;;;;5089747;28;20288;-56
2022/10/03 08:16:41;;;;;;;16.83;6.60;;;13.20;99.90;;;;;;5052416;28;20271;-54
2022/10/03 08:19:33;;;;;;;9.57;5.82;;;13.60;99.90;;;;;;5128439;27;20180;-53
2022/10/03 08:22:13;;;;;;;21.35;7.05;;;13.70;99.90;;;;;;5132631;27;20272;-53
2022/10/03 08:25:20;;;;;;;18.83;6.03;;;13.70;99.90;;;;;;5132583;27;20166;-54
2022/10/03 08:28:25;;;;;;;13.90;5.50;;;13.70;99.90;;;;;;5132083;27;20175;-54
2022/10/03 08:31:03;;;;;;;14.77;6.35;;;14.00;99.90;;;;;;5104447;27;20652;-55
2022/10/03 08:33:53;;;;;;;15.05;6.70;;;14.50;99.90;;;;;;5134250;27;20401;-54
2022/10/03 08:36:46;;;;;;;9.48;5.53;;;14.60;99.90;;;;;;5135852;27;20168;-52
2022/10/03 08:39:17;;;;;;;14.73;6.07;;;14.90;99.90;;;;;;5134025;27;20156;-61
2022/10/03 08:42:20;;;;;;;14.20;5.85;;;15.20;99.90;;;;;;5135483;27;20290;-57
2022/10/03 08:45:01;;;;;;;12.50;6.18;;;14.90;99.90;;;;;;5114696;28;20161;-58
2022/10/03 08:47:54;;;;;;;18.60;6.53;;;14.70;99.90;;;;;;5114521;28;20172;-58
2022/10/03 08:50:42;;;;;;;13.77;5.72;;;14.60;99.90;;;;;;5114872;27;20204;-58
2022/10/03 08:53:30;;;;;;;22.80;6.78;;;14.30;99.90;;;;;;5114545;28;20165;-58
2022/10/03 08:56:34;;;;;;;14.02;6.20;;;14.40;99.90;;;;;;5114432;28;20211;-56
2022/10/03 08:59:44;;;;;;;15.50;6.03;;;14.50;99.90;;;;;;5113107;28;20641;-58
2022/10/03 09:02:34;;;;;;;9.80;4.95;;;14.60;99.90;;;;;;5091627;28;20574;-54
2022/10/03 09:05:18;;;;;;;13.32;5.18;;;14.80;99.90;;;;;;5114464;28;20226;-57
2022/10/03 09:08:19;;;;;;;16.55;5.13;;;15.10;99.90;;;;;;5112935;28;20161;-54
2022/10/03 09:11:03;;;;;;;17.50;5.82;;;15.20;99.90;;;;;;5114189;28;20200;-55
2022/10/03 09:13:47;;;;;;;13.02;5.47;;;15.40;99.90;;;;;;5114080;28;20165;-55
2022/10/03 09:16:34;;;;;;;12.27;5.00;;;15.50;99.90;;;;;;5113843;28;20169;-57
2022/10/03 09:19:23;;;;;;;8.50;4.63;;;15.70;99.90;;;;;;5114239;28;20168;-57
2022/10/03 09:22:02;;;;;;;13.52;4.60;;;15.70;99.90;;;;;;5114151;28;20269;-57
2022/10/03 09:25:10;;;;;;;12.15;4.43;;;16.20;99.90;;;;;;5113994;28;20168;-57
2022/10/03 09:27:42;;;;;;;12.00;4.82;;;16.10;99.90;;;;;;5106507;28;20227;-57
2022/10/03 09:30:16;;;;;;;13.23;5.43;;;16.40;99.90;;;;;;5114012;28;20163;-57
2022/10/03 09:33:00;;;;;;;16.83;4.03;;;16.50;99.90;;;;;;5114130;27;20194;-57
2022/10/03 09:35:41;;;;;;;11.70;4.65;;;16.50;99.90;;;;;;5113714;28;20309;-58
2022/10/03 09:38:10;;;;;;;16.25;6.18;;;16.60;99.90;;;;;;5114042;28;20209;-58
2022/10/03 09:41:17;;;;;;;15.35;4.55;;;16.60;99.90;;;;;;5112729;28;20172;-57
2022/10/03 09:43:45;;;;;;;10.88;3.25;;;16.90;99.90;;;;;;5113606;28;20175;-58
2022/10/03 09:47:21;;;;;;;10.52;3.47;;;16.80;99.90;;;;;;5113643;28;20165;-57
2022/10/03 09:50:22;;;;;;;11.55;3.58;;;16.50;99.90;;;;;;5113310;28;20596;-57
2022/10/03 09:53:24;;;;;;;11.60;3.92;;;17.00;99.90;;;;;;5113704;28;20163;-58
2022/10/03 09:56:27;;;;;;;10.38;3.58;;;17.30;99.90;;;;;;5110383;28;20261;-58
2022/10/03 09:59:17;;;;;;;14.35;3.13;;;17.10;99.90;;;;;;5113750;28;20176;-54
2022/10/03 10:01:59;;;;;;;9.98;2.85;;;17.20;99.90;;;;;;5113263;28;20196;-58
2022/10/03 10:04:36;;;;;;;10.05;2.85;;;17.20;99.90;;;;;;5113187;28;20186;-55
2022/10/03 10:07:46;;;;;;;10.45;3.25;;;16.90;99.90;;;;;;5113224;28;20683;-57
2022/10/03 10:10:21;;;;;;;8.75;3.22;;;16.80;99.90;;;;;;5113920;27;20179;-57
2022/10/03 10:13:05;;;;;;;11.07;3.25;;;16.80;99.90;;;;;;5113306;28;20255;-58
2022/10/03 10:15:40;;;;;;;9.05;2.42;;;16.90;99.90;;;;;;5112953;28;20164;-57
2022/10/03 10:18:39;;;;;;;12.40;3.00;;;17.00;99.90;;;;;;5113235;28;20160;-59
2022/10/03 10:21:31;;;;;;;7.75;3.00;;;16.80;99.90;;;;;;5104385;28;20696;-57
2022/10/03 10:24:15;;;;;;;11.23;3.33;;;16.70;99.90;;;;;;5112986;28;20229;-58
2022/10/03 10:26:55;;;;;;;7.00;2.42;;;16.90;99.90;;;;;;5112770;28;20165;-57
2022/10/03 10:29:30;;;;;;;14.52;3.35;;;16.80;99.90;;;;;;5113072;28;20203;-58
2022/10/03 10:32:41;;;;;;;8.52;2.13;;;17.00;99.90;;;;;;5112449;27;20164;-57
2022/10/03 10:35:45;;;;;;;9.00;2.50;;;16.80;99.90;;;;;;5089996;28;20169;-57
2022/10/03 10:38:24;;;;;;;8.95;2.30;;;17.00;99.90;;;;;;5112593;28;20225;-58
2022/10/03 10:41:24;;;;;;;12.60;3.22;;;17.00;99.90;;;;;;5113034;28;20265;-55
2022/10/03 10:44:08;;;;;;;11.13;2.90;;;17.20;99.90;;;;;;5112791;28;20184;-58
2022/10/03 10:46:55;;;;;;;9.27;2.40;;;17.40;99.90;;;;;;5112391;28;20168;-57
2022/10/03 10:49:38;;;;;;;6.50;2.28;;;17.30;99.90;;;;;;5112760;28;20168;-58
2022/10/03 10:52:32;;;;;;;6.35;2.17;;;17.50;99.90;;;;;;5112241;28;20165;-56
2022/10/03 10:55:41;;;;;;;9.23;2.53;;;17.60;99.90;;;;;;5112078;28;20212;-57
2022/10/03 10:58:30;;;;;;;9.10;2.00;;;17.90;99.90;;;;;;5112223;28;20173;-56
2022/10/03 11:01:27;;;;;;;14.13;6.50;;;18.10;99.90;;;;;;5112300;28;20208;-57
2022/10/03 11:04:29;;;;;;;7.97;2.28;;;18.20;99.90;;;;;;5112072;28;20673;-54
2022/10/03 11:07:15;;;;;;;5.90;2.40;;;18.20;99.90;;;;;;5112027;28;20160;-57
2022/10/03 11:09:59;;;;;;;14.50;6.38;;;18.30;99.90;;;;;;5111908;28;20205;-57
2022/10/03 11:12:36;;;;;;;9.73;2.40;;;18.10;99.90;;;;;;5111783;28;20179;-56
2022/10/03 11:15:38;;;;;;;6.90;2.55;;;17.90;99.90;;;;;;5111898;28;20176;-57
2022/10/03 11:18:25;;;;;;;4.43;1.77;;;17.80;99.90;;;;;;5111805;28;20160;-55
2022/10/03 11:21:09;;;;;;;7.70;2.17;;;17.90;99.90;;;;;;5112017;28;20252;-56
2022/10/03 11:24:11;;;;;;;11.00;2.08;;;18.00;99.90;;;;;;5111687;28;20176;-55
2022/10/03 11:26:45;;;;;;;8.15;2.33;;;18.30;99.90;;;;;;5111642;28;20259;-56
2022/10/03 11:30:02;;;;;;;9.77;2.80;;;18.50;99.90;;;;;;5111548;28;20169;-56
2022/10/03 11:32:45;;;;;;;5.78;1.90;;;18.30;99.90;;;;;;5111545;28;20172;-55
2022/10/03 11:35:49;;;;;;;6.22;2.45;;;17.90;99.90;;;;;;5110215;28;20176;-55
2022/10/03 11:38:25;;;;;;;7.03;2.28;;;17.90;99.90;;;;;;5111399;28;20188;-54
2022/10/03 11:40:53;;;;;;;6.05;1.52;;;17.60;99.90;;;;;;5111958;28;20203;-54
2022/10/03 11:43:57;;;;;;;19.33;7.53;;;17.40;99.90;;;;;;5111558;28;20176;-57
2022/10/03 11:46:34;;;;;;;9.30;2.10;;;17.20;99.90;;;;;;5111294;28;20167;-54
2022/10/03 11:49:38;;;;;;;6.20;2.00;;;17.10;99.90;;;;;;5111551;28;20601;-55
2022/10/03 11:52:27;;;;;;;4.30;1.92;;;17.00;99.90;;;;;;5111272;28;20168;-56
2022/10/03 11:55:22;;;;;;;3.55;1.40;;;16.90;99.90;;;;;;5111137;28;20295;-55
2022/10/03 11:58:02;;;;;;;9.32;2.55;;;16.80;99.90;;;;;;5111171;28;20629;-55
2022/10/03 12:00:34;;;;;;;4.72;1.63;;;16.80;99.90;;;;;;5111245;28;20164;-56
2022/10/03 12:03:19;;;;;;;5.10;2.00;;;16.80;99.90;;;;;;5110450;28;20197;-57
2022/10/03 12:09:01;;;;;;;4.63;2.10;;;16.80;99.90;;;;;;5111090;28;20206;-54
2022/10/03 12:11:45;;;;;;;4.82;1.70;;;16.80;99.90;;;;;;5110979;28;20192;-57
2022/10/03 12:14:28;;;;;;;6.47;1.63;;;16.80;99.90;;;;;;5111118;28;20594;-54
2022/10/03 12:17:04;;;;;;;5.72;1.92;;;17.20;99.90;;;;;;5111329;28;20203;-55
2022/10/03 12:20:01;;;;;;;6.47;2.03;;;17.20;99.90;;;;;;5111113;28;20172;-57
2022/10/03 12:22:51;;;;;;;6.63;1.65;;;17.60;99.90;;;;;;5107159;28;20231;-57
2022/10/03 12:25:20;;;;;;;7.03;1.80;;;17.70;99.90;;;;;;5111231;28;20259;-57
2022/10/03 12:28:06;;;;;;;8.02;2.08;;;17.60;99.90;;;;;;5110940;28;20169;-55
2022/10/03 12:30:59;;;;;;;4.75;1.73;;;17.40;99.90;;;;;;5110680;28;20168;-57
2022/10/03 12:33:50;;;;;;;7.00;2.13;;;17.40;99.90;;;;;;5110695;28;20184;-57
2022/10/03 12:36:43;;;;;;;10.35;1.90;;;17.70;99.90;;;;;;5110781;28;20157;-57
2022/10/03 12:39:24;;;;;;;6.55;1.95;;;17.70;99.90;;;;;;5110783;28;20169;-56
2022/10/03 12:42:21;;;;;;;5.53;1.55;;;17.70;99.90;;;;;;5111379;28;20556;-56
2022/10/03 12:45:14;;;;;;;3.58;1.70;;;17.50;99.90;;;;;;5110636;28;20169;-54
2022/10/03 12:47:54;;;;;;;5.45;1.92;;;17.30;99.90;;;;;;5110879;28;20190;-57
2022/10/03 12:50:54;;;;;;;4.47;2.20;;;17.30;99.90;;;;;;5109788;28;20887;-55
2022/10/03 12:53:43;;;;;;;5.25;1.55;;;17.30;99.90;;;;;;5110888;28;20706;-55
2022/10/03 12:56:44;;;;;;;4.68;2.08;;;17.40;99.90;;;;;;5110366;28;20216;-56
2022/10/03 12:59:16;;;;;;;5.68;2.05;;;17.30;99.90;;;;;;5110277;28;20213;-56
2022/10/03 13:01:51;;;;;;;4.25;2.10;;;16.20;99.90;;;;;;5110316;28;20228;-54
2022/10/03 13:04:23;;;;;;;5.55;2.10;;;17.30;99.90;;;;;;5110078;28;20207;-55
2022/10/03 13:07:00;;;;;;;4.97;2.05;;;17.40;99.90;;;;;;5110548;28;20164;-55
2022/10/03 13:09:32;;;;;;;7.93;1.98;;;17.30;99.90;;;;;;5110094;28;20171;-54
2022/10/03 13:12:19;;;;;;;8.38;1.98;;;17.40;99.90;;;;;;5110134;28;20169;-54
2022/10/03 13:15:22;;;;;;;5.22;1.42;;;17.60;99.90;;;;;;5112057;28;20165;-54
2022/10/03 13:17:54;;;;;;;4.85;2.10;;;17.70;99.90;;;;;;5114028;28;20259;-57
2022/10/03 13:20:35;;;;;;;4.15;2.20;;;18.00;99.90;;;;;;5114652;28;20176;-56
2022/10/03 13:23:08;;;;;;;5.45;1.60;;;18.20;99.90;;;;;;5113690;28;20200;-57
2022/10/03 13:25:52;;;;;;;2.72;1.17;;;18.40;99.90;;;;;;5113997;28;20169;-56
2022/10/03 13:28:51;;;;;;;6.75;1.98;;;18.50;99.90;;;;;;5114209;28;20172;-55
2022/10/03 13:31:24;;;;;;;12.95;10.50;;;18.70;99.90;;;;;;5113794;28;20682;-56
2022/10/03 13:33:54;;;;;;;8.63;3.90;;;19.00;99.90;;;;;;5114097;28;20240;-56
2022/10/03 13:36:45;;;;;;;8.65;4.07;;;18.90;99.90;;;;;;5114047;28;20169;-56
2022/10/03 13:39:26;;;;;;;9.45;2.75;;;19.00;99.90;;;;;;5113104;28;20172;-55
2022/10/03 13:42:09;;;;;;;4.72;1.75;;;18.90;99.90;;;;;;5113831;28;20199;-53
2022/10/03 13:44:35;;;;;;;5.22;1.83;;;18.90;99.90;;;;;;5113481;28;20201;-54
2022/10/03 13:47:34;;;;;;;8.60;1.88;;;18.70;99.90;;;;;;5113438;28;20172;-53
2022/10/03 13:50:08;;;;;;;3.33;1.80;;;18.50;99.90;;;;;;5101111;28;20654;-55
2022/10/03 13:52:50;;;;;;;6.47;1.40;;;18.50;99.90;;;;;;5113375;28;20255;-54
2022/10/03 13:55:34;;;;;;;5.57;1.98;;;18.40;99.90;;;;;;5112550;28;20212;-55
2022/10/03 13:58:35;;;;;;;4.95;1.90;;;18.20;99.90;;;;;;5113313;28;20652;-53
2022/10/03 14:01:10;;;;;;;6.00;1.88;;;18.00;99.90;;;;;;5113152;28;20204;-54
2022/10/03 14:03:54;;;;;;;5.90;1.95;;;18.00;99.90;;;;;;5112852;28;20160;-54
2022/10/03 14:06:39;;;;;;;4.13;1.70;;;17.80;99.90;;;;;;5113599;28;20196;-56
2022/10/03 14:09:14;;;;;;;4.00;1.50;;;17.60;99.90;;;;;;5112856;28;20164;-56
2022/10/03 14:11:44;;;;;;;5.78;1.73;;;17.70;99.90;;;;;;5113353;28;20259;-56
2022/10/03 14:14:28;;;;;;;3.42;1.60;;;17.60;99.90;;;;;;5113013;28;20175;-57
2022/10/03 14:17:16;;;;;;;5.30;1.50;;;17.50;99.90;;;;;;5112965;28;20251;-56
2022/10/03 14:20:01;;;;;;;5.55;2.10;;;17.60;99.90;;;;;;5112630;28;20201;-57
2022/10/03 14:22:56;;;;;;;3.70;1.58;;;17.50;99.90;;;;;;5112555;28;20204;-56
2022/10/03 14:25:33;;;;;;;6.05;1.38;;;17.50;99.90;;;;;;5112155;28;20165;-56
2022/10/03 14:28:29;;;;;;;7.20;2.08;;;17.50;99.90;;;;;;5112747;28;20179;-57
2022/10/03 14:31:22;;;;;;;5.63;1.70;;;17.50;99.90;;;;;;5112720;28;20165;-57
2022/10/03 14:34:34;;;;;;;7.00;1.80;;;17.40;99.90;;;;;;5112657;28;20172;-56